sensor_id;sensor_type;location;lat;lon;timestamp;P1;durP1;ratioP1;P2;durP2;ratioP2
12445;SDS011;6287;50.984;7.022;2023-07-02T00:02:13;3.33;;;2.00;;
12445;SDS011;6287;50.984;7.022;2023-07-02T00:04:39;4.03;;;2.10;;
12445;SDS011;6287;50.984;7.022;2023-07-02T00:07:07;6.22;;;2.00;;
12445;SDS011;6287;50.984;7.022;2023-07-02T00:09:34;3.37;;;2.10;;
12445;SDS011;6287;50.984;7.022;2023-07-02T00:12:03;4.30;;;2.20;;
12445;SDS011;6287;50.984;7.022;2023-07-02T00:14:29;3.40;;;1.87;;
12445;SDS011;6287;50.984;7.022;2023-07-02T00:16:56;5.07;;;2.10;;
12445;SDS011;6287;50.984;7.022;2023-07-02T00:19:22;4.45;;;2.20;;
12445;SDS011;6287;50.984;7.022;2023-07-02T00:21:50;7.03;;;2.70;;
12445;SDS011;6287;50.984;7.022;2023-07-02T00:24:18;3.90;;;2.47;;
12445;SDS011;6287;50.984;7.022;2023-07-02T00:26:46;4.43;;;2.30;;
12445;SDS011;6287;50.984;7.022;2023-07-02T00:29:15;3.50;;;1.97;;
12445;SDS011;6287;50.984;7.022;2023-07-02T00:31:42;4.17;;;2.30;;
12445;SDS011;6287;50.984;7.022;2023-07-02T00:34:11;4.10;;;2.37;;
12445;SDS011;6287;50.984;7.022;2023-07-02T00:36:38;3.90;;;2.13;;
12445;SDS011;6287;50.984;7.022;2023-07-02T00:39:06;5.67;;;2.70;;
12445;SDS011;6287;50.984;7.022;2023-07-02T00:41:32;2.80;;;2.30;;
12445;SDS011;6287;50.984;7.022;2023-07-02T00:43:57;6.20;;;2.60;;
12445;SDS011;6287;50.984;7.022;2023-07-02T00:46:23;4.73;;;2.70;;
12445;SDS011;6287;50.984;7.022;2023-07-02T00:48:51;3.63;;;2.50;;
12445;SDS011;6287;50.984;7.022;2023-07-02T00:51:20;3.95;;;2.13;;
12445;SDS011;6287;50.984;7.022;2023-07-02T00:53:58;4.33;;;2.37;;
12445;SDS011;6287;50.984;7.022;2023-07-02T00:56:24;5.17;;;2.70;;
12445;SDS011;6287;50.984;7.022;2023-07-02T00:58:54;6.07;;;3.13;;
12445;SDS011;6287;50.984;7.022;2023-07-02T01:01:23;5.27;;;2.77;;
12445;SDS011;6287;50.984;7.022;2023-07-02T01:04:04;4.77;;;2.60;;
12445;SDS011;6287;50.984;7.022;2023-07-02T01:06:36;5.40;;;2.33;;
12445;SDS011;6287;50.984;7.022;2023-07-02T01:09:06;5.17;;;2.83;;
12445;SDS011;6287;50.984;7.022;2023-07-02T01:17:12;5.87;;;2.90;;
12445;SDS011;6287;50.984;7.022;2023-07-02T01:19:50;4.93;;;2.73;;
12445;SDS011;6287;50.984;7.022;2023-07-02T01:22:28;5.50;;;2.87;;
12445;SDS011;6287;50.984;7.022;2023-07-02T01:24:54;7.07;;;3.30;;
12445;SDS011;6287;50.984;7.022;2023-07-02T01:27:21;5.97;;;2.83;;
12445;SDS011;6287;50.984;7.022;2023-07-02T01:29:53;3.80;;;3.05;;
12445;SDS011;6287;50.984;7.022;2023-07-02T01:32:19;5.35;;;3.28;;
12445;SDS011;6287;50.984;7.022;2023-07-02T01:34:47;6.33;;;3.03;;
12445;SDS011;6287;50.984;7.022;2023-07-02T01:37:14;4.10;;;3.17;;
12445;SDS011;6287;50.984;7.022;2023-07-02T01:39:40;5.65;;;3.22;;
12445;SDS011;6287;50.984;7.022;2023-07-02T01:42:09;7.10;;;4.00;;
12445;SDS011;6287;50.984;7.022;2023-07-02T01:44:36;6.73;;;3.60;;
12445;SDS011;6287;50.984;7.022;2023-07-02T01:47:03;8.05;;;3.17;;
12445;SDS011;6287;50.984;7.022;2023-07-02T01:49:29;6.00;;;3.35;;
12445;SDS011;6287;50.984;7.022;2023-07-02T01:51:58;9.07;;;3.72;;
12445;SDS011;6287;50.984;7.022;2023-07-02T01:54:25;6.87;;;3.83;;
12445;SDS011;6287;50.984;7.022;2023-07-02T01:56:57;7.85;;;3.83;;
12445;SDS011;6287;50.984;7.022;2023-07-02T01:59:28;8.70;;;4.10;;
12445;SDS011;6287;50.984;7.022;2023-07-02T02:01:54;9.05;;;4.38;;
12445;SDS011;6287;50.984;7.022;2023-07-02T02:04:22;6.70;;;4.43;;
12445;SDS011;6287;50.984;7.022;2023-07-02T02:06:50;9.40;;;4.80;;
12445;SDS011;6287;50.984;7.022;2023-07-02T02:09:19;9.90;;;4.40;;
12445;SDS011;6287;50.984;7.022;2023-07-02T02:11:48;10.27;;;4.27;;
12445;SDS011;6287;50.984;7.022;2023-07-02T02:14:15;5.93;;;4.05;;
12445;SDS011;6287;50.984;7.022;2023-07-02T02:16:43;9.23;;;4.60;;
12445;SDS011;6287;50.984;7.022;2023-07-02T02:19:14;7.53;;;4.47;;
12445;SDS011;6287;50.984;7.022;2023-07-02T02:21:40;10.60;;;4.75;;
12445;SDS011;6287;50.984;7.022;2023-07-02T02:24:13;7.57;;;4.70;;
12445;SDS011;6287;50.984;7.022;2023-07-02T02:26:39;8.63;;;5.17;;
12445;SDS011;6287;50.984;7.022;2023-07-02T02:29:12;11.83;;;5.83;;
12445;SDS011;6287;50.984;7.022;2023-07-02T02:31:38;12.40;;;5.30;;
12445;SDS011;6287;50.984;7.022;2023-07-02T02:34:05;10.45;;;5.18;;
12445;SDS011;6287;50.984;7.022;2023-07-02T02:36:33;10.50;;;5.77;;
12445;SDS011;6287;50.984;7.022;2023-07-02T02:38:59;12.00;;;5.97;;
12445;SDS011;6287;50.984;7.022;2023-07-02T02:41:27;11.67;;;5.63;;
12445;SDS011;6287;50.984;7.022;2023-07-02T02:43:57;11.93;;;5.57;;
12445;SDS011;6287;50.984;7.022;2023-07-02T02:46:28;13.53;;;6.00;;
12445;SDS011;6287;50.984;7.022;2023-07-02T02:48:53;12.10;;;5.67;;
12445;SDS011;6287;50.984;7.022;2023-07-02T02:51:21;10.43;;;5.37;;
12445;SDS011;6287;50.984;7.022;2023-07-02T02:53:49;13.40;;;5.40;;
12445;SDS011;6287;50.984;7.022;2023-07-02T02:56:17;11.20;;;6.10;;
12445;SDS011;6287;50.984;7.022;2023-07-02T02:58:43;12.10;;;6.00;;
12445;SDS011;6287;50.984;7.022;2023-07-02T03:01:09;11.67;;;5.87;;
12445;SDS011;6287;50.984;7.022;2023-07-02T03:03:40;10.45;;;6.00;;
12445;SDS011;6287;50.984;7.022;2023-07-02T03:06:11;10.73;;;5.50;;
12445;SDS011;6287;50.984;7.022;2023-07-02T03:08:38;13.07;;;5.70;;
12445;SDS011;6287;50.984;7.022;2023-07-02T03:11:04;9.82;;;5.22;;
12445;SDS011;6287;50.984;7.022;2023-07-02T03:13:29;11.90;;;6.23;;
12445;SDS011;6287;50.984;7.022;2023-07-02T03:15:55;12.77;;;6.43;;
12445;SDS011;6287;50.984;7.022;2023-07-02T03:18:23;9.47;;;5.67;;
12445;SDS011;6287;50.984;7.022;2023-07-02T03:20:48;15.77;;;6.50;;
12445;SDS011;6287;50.984;7.022;2023-07-02T03:23:15;13.73;;;6.47;;
12445;SDS011;6287;50.984;7.022;2023-07-02T03:25:40;12.77;;;6.27;;
12445;SDS011;6287;50.984;7.022;2023-07-02T03:28:06;10.33;;;5.63;;
12445;SDS011;6287;50.984;7.022;2023-07-02T03:30:33;14.27;;;6.27;;
12445;SDS011;6287;50.984;7.022;2023-07-02T03:32:59;14.80;;;6.53;;
12445;SDS011;6287;50.984;7.022;2023-07-02T03:35:25;17.23;;;6.80;;
12445;SDS011;6287;50.984;7.022;2023-07-02T03:37:50;14.47;;;5.83;;
12445;SDS011;6287;50.984;7.022;2023-07-02T03:40:16;15.43;;;6.73;;
12445;SDS011;6287;50.984;7.022;2023-07-02T03:42:42;10.93;;;6.13;;
12445;SDS011;6287;50.984;7.022;2023-07-02T03:45:10;11.57;;;6.63;;
12445;SDS011;6287;50.984;7.022;2023-07-02T03:47:39;14.10;;;6.73;;
12445;SDS011;6287;50.984;7.022;2023-07-02T03:50:11;14.20;;;7.87;;
12445;SDS011;6287;50.984;7.022;2023-07-02T03:52:39;16.27;;;7.63;;
12445;SDS011;6287;50.984;7.022;2023-07-02T03:55:07;15.73;;;7.47;;
12445;SDS011;6287;50.984;7.022;2023-07-02T03:57:35;11.60;;;6.47;;
12445;SDS011;6287;50.984;7.022;2023-07-02T04:00:01;12.60;;;7.20;;
12445;SDS011;6287;50.984;7.022;2023-07-02T04:02:27;15.93;;;7.63;;
12445;SDS011;6287;50.984;7.022;2023-07-02T04:04:53;12.10;;;7.03;;
12445;SDS011;6287;50.984;7.022;2023-07-02T04:07:20;13.63;;;7.27;;
12445;SDS011;6287;50.984;7.022;2023-07-02T04:09:46;12.93;;;6.97;;
12445;SDS011;6287;50.984;7.022;2023-07-02T04:12:14;17.53;;;8.03;;
12445;SDS011;6287;50.984;7.022;2023-07-02T04:14:40;12.83;;;7.27;;
12445;SDS011;6287;50.984;7.022;2023-07-02T04:17:07;15.97;;;6.93;;
12445;SDS011;6287;50.984;7.022;2023-07-02T04:19:33;16.23;;;7.00;;
12445;SDS011;6287;50.984;7.022;2023-07-02T04:22:06;14.13;;;7.73;;
12445;SDS011;6287;50.984;7.022;2023-07-02T04:24:31;17.30;;;7.70;;
12445;SDS011;6287;50.984;7.022;2023-07-02T04:26:57;16.53;;;8.27;;
12445;SDS011;6287;50.984;7.022;2023-07-02T04:29:24;15.33;;;7.53;;
12445;SDS011;6287;50.984;7.022;2023-07-02T04:31:50;14.00;;;7.80;;
12445;SDS011;6287;50.984;7.022;2023-07-02T04:34:16;18.77;;;8.13;;
12445;SDS011;6287;50.984;7.022;2023-07-02T04:36:46;14.13;;;7.90;;
12445;SDS011;6287;50.984;7.022;2023-07-02T04:39:13;18.13;;;8.40;;
12445;SDS011;6287;50.984;7.022;2023-07-02T04:41:41;17.37;;;7.90;;
12445;SDS011;6287;50.984;7.022;2023-07-02T04:44:09;16.20;;;7.90;;
12445;SDS011;6287;50.984;7.022;2023-07-02T04:46:37;17.13;;;8.27;;
12445;SDS011;6287;50.984;7.022;2023-07-02T04:49:03;18.37;;;8.60;;
12445;SDS011;6287;50.984;7.022;2023-07-02T04:51:29;21.27;;;9.13;;
12445;SDS011;6287;50.984;7.022;2023-07-02T04:53:55;14.83;;;8.17;;
12445;SDS011;6287;50.984;7.022;2023-07-02T04:56:23;19.47;;;9.00;;
12445;SDS011;6287;50.984;7.022;2023-07-02T04:58:48;17.50;;;8.53;;
12445;SDS011;6287;50.984;7.022;2023-07-02T05:01:14;17.37;;;7.87;;
12445;SDS011;6287;50.984;7.022;2023-07-02T05:03:42;20.63;;;9.30;;
12445;SDS011;6287;50.984;7.022;2023-07-02T05:06:10;17.53;;;8.87;;
12445;SDS011;6287;50.984;7.022;2023-07-02T05:08:38;22.57;;;9.93;;
12445;SDS011;6287;50.984;7.022;2023-07-02T05:11:06;16.17;;;9.43;;
12445;SDS011;6287;50.984;7.022;2023-07-02T05:13:36;18.70;;;8.93;;
12445;SDS011;6287;50.984;7.022;2023-07-02T05:16:04;18.43;;;9.20;;
12445;SDS011;6287;50.984;7.022;2023-07-02T05:18:32;18.63;;;9.43;;
12445;SDS011;6287;50.984;7.022;2023-07-02T05:20:58;17.43;;;9.03;;
12445;SDS011;6287;50.984;7.022;2023-07-02T05:23:24;19.30;;;9.27;;
12445;SDS011;6287;50.984;7.022;2023-07-02T05:25:49;20.50;;;9.97;;
12445;SDS011;6287;50.984;7.022;2023-07-02T05:28:19;20.23;;;9.57;;
12445;SDS011;6287;50.984;7.022;2023-07-02T05:30:45;20.15;;;9.75;;
12445;SDS011;6287;50.984;7.022;2023-07-02T05:33:11;18.33;;;8.97;;
12445;SDS011;6287;50.984;7.022;2023-07-02T05:35:36;19.60;;;9.70;;
12445;SDS011;6287;50.984;7.022;2023-07-02T05:38:02;19.77;;;9.63;;
12445;SDS011;6287;50.984;7.022;2023-07-02T05:40:30;23.07;;;10.17;;
12445;SDS011;6287;50.984;7.022;2023-07-02T05:42:56;18.17;;;9.27;;
12445;SDS011;6287;50.984;7.022;2023-07-02T05:45:21;22.27;;;10.10;;
12445;SDS011;6287;50.984;7.022;2023-07-02T05:47:52;18.03;;;9.77;;
12445;SDS011;6287;50.984;7.022;2023-07-02T05:50:20;20.63;;;10.35;;
12445;SDS011;6287;50.984;7.022;2023-07-02T05:52:48;20.45;;;10.05;;
12445;SDS011;6287;50.984;7.022;2023-07-02T05:55:14;17.98;;;10.10;;
12445;SDS011;6287;50.984;7.022;2023-07-02T05:57:41;19.63;;;10.02;;
12445;SDS011;6287;50.984;7.022;2023-07-02T06:00:07;17.10;;;9.93;;
12445;SDS011;6287;50.984;7.022;2023-07-02T06:02:33;17.80;;;10.02;;
12445;SDS011;6287;50.984;7.022;2023-07-02T06:04:59;19.57;;;9.60;;
12445;SDS011;6287;50.984;7.022;2023-07-02T06:07:26;19.83;;;9.85;;
12445;SDS011;6287;50.984;7.022;2023-07-02T06:09:54;21.50;;;10.65;;
12445;SDS011;6287;50.984;7.022;2023-07-02T06:12:20;18.58;;;9.88;;
12445;SDS011;6287;50.984;7.022;2023-07-02T06:14:49;22.75;;;10.05;;
12445;SDS011;6287;50.984;7.022;2023-07-02T06:17:14;23.95;;;10.63;;
12445;SDS011;6287;50.984;7.022;2023-07-02T06:19:44;19.20;;;10.38;;
12445;SDS011;6287;50.984;7.022;2023-07-02T06:22:10;21.88;;;10.80;;
12445;SDS011;6287;50.984;7.022;2023-07-02T06:24:35;22.60;;;10.50;;
12445;SDS011;6287;50.984;7.022;2023-07-02T06:27:05;17.77;;;9.88;;
12445;SDS011;6287;50.984;7.022;2023-07-02T06:29:31;20.83;;;10.23;;
12445;SDS011;6287;50.984;7.022;2023-07-02T06:31:59;24.27;;;10.02;;
12445;SDS011;6287;50.984;7.022;2023-07-02T06:34:24;18.95;;;9.80;;
12445;SDS011;6287;50.984;7.022;2023-07-02T06:36:50;20.70;;;10.57;;
12445;SDS011;6287;50.984;7.022;2023-07-02T06:39:18;17.67;;;10.60;;
12445;SDS011;6287;50.984;7.022;2023-07-02T06:41:44;24.02;;;10.52;;
12445;SDS011;6287;50.984;7.022;2023-07-02T06:44:14;19.80;;;9.43;;
12445;SDS011;6287;50.984;7.022;2023-07-02T06:46:39;23.30;;;10.07;;
12445;SDS011;6287;50.984;7.022;2023-07-02T06:49:07;17.88;;;8.68;;
12445;SDS011;6287;50.984;7.022;2023-07-02T06:51:38;19.95;;;8.85;;
12445;SDS011;6287;50.984;7.022;2023-07-02T06:54:06;18.45;;;8.95;;
12445;SDS011;6287;50.984;7.022;2023-07-02T06:56:34;16.90;;;9.20;;
12445;SDS011;6287;50.984;7.022;2023-07-02T06:59:00;21.38;;;9.55;;
12445;SDS011;6287;50.984;7.022;2023-07-02T07:01:28;21.20;;;9.10;;
12445;SDS011;6287;50.984;7.022;2023-07-02T07:03:54;17.45;;;8.68;;
12445;SDS011;6287;50.984;7.022;2023-07-02T07:06:22;18.30;;;9.13;;
12445;SDS011;6287;50.984;7.022;2023-07-02T07:08:55;20.10;;;8.95;;
12445;SDS011;6287;50.984;7.022;2023-07-02T07:11:20;16.58;;;8.43;;
12445;SDS011;6287;50.984;7.022;2023-07-02T07:13:48;19.67;;;9.35;;
12445;SDS011;6287;50.984;7.022;2023-07-02T07:16:14;19.85;;;9.70;;
12445;SDS011;6287;50.984;7.022;2023-07-02T07:18:39;18.38;;;10.20;;
12445;SDS011;6287;50.984;7.022;2023-07-02T07:21:05;18.55;;;9.00;;
12445;SDS011;6287;50.984;7.022;2023-07-02T07:23:30;17.42;;;9.30;;
12445;SDS011;6287;50.984;7.022;2023-07-02T07:25:56;15.18;;;8.45;;
12445;SDS011;6287;50.984;7.022;2023-07-02T07:28:22;18.35;;;8.90;;
12445;SDS011;6287;50.984;7.022;2023-07-02T07:30:47;16.85;;;8.50;;
12445;SDS011;6287;50.984;7.022;2023-07-02T07:33:17;16.90;;;8.25;;
12445;SDS011;6287;50.984;7.022;2023-07-02T07:35:45;16.40;;;7.63;;
12445;SDS011;6287;50.984;7.022;2023-07-02T07:38:13;16.25;;;7.85;;
12445;SDS011;6287;50.984;7.022;2023-07-02T07:40:44;17.42;;;7.75;;
12445;SDS011;6287;50.984;7.022;2023-07-02T07:43:10;16.42;;;8.07;;
12445;SDS011;6287;50.984;7.022;2023-07-02T07:45:38;19.45;;;8.25;;
12445;SDS011;6287;50.984;7.022;2023-07-02T07:48:04;17.10;;;8.02;;
12445;SDS011;6287;50.984;7.022;2023-07-02T07:50:33;15.07;;;7.35;;
12445;SDS011;6287;50.984;7.022;2023-07-02T07:53:03;19.55;;;8.30;;
12445;SDS011;6287;50.984;7.022;2023-07-02T07:55:31;18.27;;;8.00;;
12445;SDS011;6287;50.984;7.022;2023-07-02T07:57:59;15.07;;;7.82;;
12445;SDS011;6287;50.984;7.022;2023-07-02T08:00:24;14.80;;;7.28;;
12445;SDS011;6287;50.984;7.022;2023-07-02T08:02:51;16.70;;;7.60;;
12445;SDS011;6287;50.984;7.022;2023-07-02T08:05:20;20.05;;;8.90;;
12445;SDS011;6287;50.984;7.022;2023-07-02T08:07:46;14.40;;;8.27;;
12445;SDS011;6287;50.984;7.022;2023-07-02T08:10:14;16.42;;;7.45;;
12445;SDS011;6287;50.984;7.022;2023-07-02T08:12:39;15.65;;;7.13;;
12445;SDS011;6287;50.984;7.022;2023-07-02T08:15:05;15.88;;;7.10;;
12445;SDS011;6287;50.984;7.022;2023-07-02T08:17:33;12.98;;;7.03;;
12445;SDS011;6287;50.984;7.022;2023-07-02T08:20:02;15.80;;;7.10;;
12445;SDS011;6287;50.984;7.022;2023-07-02T08:22:37;18.80;;;8.02;;
12445;SDS011;6287;50.984;7.022;2023-07-02T08:25:03;12.02;;;7.45;;
12445;SDS011;6287;50.984;7.022;2023-07-02T08:27:32;14.68;;;7.25;;
12445;SDS011;6287;50.984;7.022;2023-07-02T08:29:57;15.98;;;7.13;;
12445;SDS011;6287;50.984;7.022;2023-07-02T08:32:23;14.68;;;7.32;;
12445;SDS011;6287;50.984;7.022;2023-07-02T08:34:48;16.67;;;7.28;;
12445;SDS011;6287;50.984;7.022;2023-07-02T08:37:18;12.73;;;6.82;;
12445;SDS011;6287;50.984;7.022;2023-07-02T08:39:46;14.10;;;6.63;;
12445;SDS011;6287;50.984;7.022;2023-07-02T08:42:18;14.25;;;6.72;;
12445;SDS011;6287;50.984;7.022;2023-07-02T08:44:53;14.35;;;6.45;;
12445;SDS011;6287;50.984;7.022;2023-07-02T08:47:22;11.60;;;6.47;;
12445;SDS011;6287;50.984;7.022;2023-07-02T08:49:48;15.18;;;6.95;;
12445;SDS011;6287;50.984;7.022;2023-07-02T08:52:14;14.23;;;6.97;;
12445;SDS011;6287;50.984;7.022;2023-07-02T08:54:40;13.55;;;6.68;;
12445;SDS011;6287;50.984;7.022;2023-07-02T08:57:07;13.68;;;6.50;;
12445;SDS011;6287;50.984;7.022;2023-07-02T08:59:39;17.10;;;7.43;;
12445;SDS011;6287;50.984;7.022;2023-07-02T09:02:05;12.18;;;6.30;;
12445;SDS011;6287;50.984;7.022;2023-07-02T09:04:36;11.25;;;6.03;;
12445;SDS011;6287;50.984;7.022;2023-07-02T09:07:05;11.23;;;5.28;;
12445;SDS011;6287;50.984;7.022;2023-07-02T09:09:43;14.68;;;6.15;;
12445;SDS011;6287;50.984;7.022;2023-07-02T09:12:25;14.23;;;6.80;;
12445;SDS011;6287;50.984;7.022;2023-07-02T09:14:59;14.70;;;6.82;;
12445;SDS011;6287;50.984;7.022;2023-07-02T09:17:32;12.50;;;6.13;;
12445;SDS011;6287;50.984;7.022;2023-07-02T09:19:59;14.40;;;6.53;;
12445;SDS011;6287;50.984;7.022;2023-07-02T09:22:30;15.95;;;7.22;;
12445;SDS011;6287;50.984;7.022;2023-07-02T09:24:58;13.00;;;7.15;;
12445;SDS011;6287;50.984;7.022;2023-07-02T09:27:40;13.02;;;6.90;;
12445;SDS011;6287;50.984;7.022;2023-07-02T09:30:09;17.02;;;6.85;;
12445;SDS011;6287;50.984;7.022;2023-07-02T09:32:42;12.20;;;6.53;;
12445;SDS011;6287;50.984;7.022;2023-07-02T09:35:09;17.60;;;7.43;;
12445;SDS011;6287;50.984;7.022;2023-07-02T09:37:37;13.93;;;6.88;;
12445;SDS011;6287;50.984;7.022;2023-07-02T09:40:06;18.42;;;7.35;;
12445;SDS011;6287;50.984;7.022;2023-07-02T09:42:34;13.15;;;7.97;;
12445;SDS011;6287;50.984;7.022;2023-07-02T09:45:00;17.98;;;8.48;;
12445;SDS011;6287;50.984;7.022;2023-07-02T09:47:27;16.23;;;8.18;;
12445;SDS011;6287;50.984;7.022;2023-07-02T09:49:59;15.65;;;7.47;;
12445;SDS011;6287;50.984;7.022;2023-07-02T09:52:28;16.58;;;8.20;;
12445;SDS011;6287;50.984;7.022;2023-07-02T09:54:59;16.52;;;7.30;;
12445;SDS011;6287;50.984;7.022;2023-07-02T09:57:25;16.77;;;7.57;;
12445;SDS011;6287;50.984;7.022;2023-07-02T09:59:58;16.55;;;7.47;;
12445;SDS011;6287;50.984;7.022;2023-07-02T10:02:27;18.67;;;8.13;;
12445;SDS011;6287;50.984;7.022;2023-07-02T10:04:56;18.90;;;8.88;;
12445;SDS011;6287;50.984;7.022;2023-07-02T10:07:26;13.45;;;7.35;;
12445;SDS011;6287;50.984;7.022;2023-07-02T10:09:53;14.00;;;7.35;;
12445;SDS011;6287;50.984;7.022;2023-07-02T10:12:28;18.33;;;8.23;;
12445;SDS011;6287;50.984;7.022;2023-07-02T10:14:58;16.00;;;8.05;;
12445;SDS011;6287;50.984;7.022;2023-07-02T10:17:33;18.30;;;9.52;;
12445;SDS011;6287;50.984;7.022;2023-07-02T10:20:05;14.50;;;7.38;;
12445;SDS011;6287;50.984;7.022;2023-07-02T10:22:42;16.25;;;8.13;;
12445;SDS011;6287;50.984;7.022;2023-07-02T10:25:12;15.85;;;8.07;;
12445;SDS011;6287;50.984;7.022;2023-07-02T10:28:13;15.20;;;8.15;;
12445;SDS011;6287;50.984;7.022;2023-07-02T10:30:51;17.60;;;8.57;;
12445;SDS011;6287;50.984;7.022;2023-07-02T10:33:20;16.02;;;8.15;;
12445;SDS011;6287;50.984;7.022;2023-07-02T10:35:49;12.55;;;7.05;;
12445;SDS011;6287;50.984;7.022;2023-07-02T10:38:19;12.98;;;7.53;;
12445;SDS011;6287;50.984;7.022;2023-07-02T10:40:57;16.80;;;7.85;;
12445;SDS011;6287;50.984;7.022;2023-07-02T10:43:29;15.18;;;7.45;;
12445;SDS011;6287;50.984;7.022;2023-07-02T10:45:57;16.73;;;8.00;;
12445;SDS011;6287;50.984;7.022;2023-07-02T10:48:25;14.65;;;7.55;;
12445;SDS011;6287;50.984;7.022;2023-07-02T10:50:53;16.17;;;8.00;;
12445;SDS011;6287;50.984;7.022;2023-07-02T10:53:20;17.60;;;8.43;;
12445;SDS011;6287;50.984;7.022;2023-07-02T10:55:53;14.90;;;7.63;;
12445;SDS011;6287;50.984;7.022;2023-07-02T10:58:22;19.83;;;9.30;;
12445;SDS011;6287;50.984;7.022;2023-07-02T11:00:51;13.75;;;7.57;;
12445;SDS011;6287;50.984;7.022;2023-07-02T11:03:23;18.15;;;8.43;;
12445;SDS011;6287;50.984;7.022;2023-07-02T11:05:50;15.43;;;8.15;;
12445;SDS011;6287;50.984;7.022;2023-07-02T11:08:18;15.45;;;8.00;;
12445;SDS011;6287;50.984;7.022;2023-07-02T11:10:48;15.32;;;7.82;;
12445;SDS011;6287;50.984;7.022;2023-07-02T11:13:14;14.00;;;7.43;;
12445;SDS011;6287;50.984;7.022;2023-07-02T11:15:43;15.82;;;7.10;;
12445;SDS011;6287;50.984;7.022;2023-07-02T11:18:12;15.20;;;8.13;;
12445;SDS011;6287;50.984;7.022;2023-07-02T11:20:39;17.27;;;7.97;;
12445;SDS011;6287;50.984;7.022;2023-07-02T11:26:02;11.52;;;7.10;;
12445;SDS011;6287;50.984;7.022;2023-07-02T11:28:29;10.30;;;6.13;;
12445;SDS011;6287;50.984;7.022;2023-07-02T11:31:04;11.25;;;6.90;;
12445;SDS011;6287;50.984;7.022;2023-07-02T11:33:35;14.95;;;7.75;;
12445;SDS011;6287;50.984;7.022;2023-07-02T11:36:05;13.80;;;6.80;;
12445;SDS011;6287;50.984;7.022;2023-07-02T11:38:33;14.40;;;7.20;;
12445;SDS011;6287;50.984;7.022;2023-07-02T11:40:59;13.20;;;7.05;;
12445;SDS011;6287;50.984;7.022;2023-07-02T11:43:27;14.48;;;7.82;;
12445;SDS011;6287;50.984;7.022;2023-07-02T11:45:54;18.45;;;7.45;;
12445;SDS011;6287;50.984;7.022;2023-07-02T11:48:22;14.00;;;7.72;;
12445;SDS011;6287;50.984;7.022;2023-07-02T11:50:50;14.70;;;7.50;;
12445;SDS011;6287;50.984;7.022;2023-07-02T11:53:15;13.25;;;7.32;;
12445;SDS011;6287;50.984;7.022;2023-07-02T11:55:43;13.55;;;7.50;;
12445;SDS011;6287;50.984;7.022;2023-07-02T11:58:08;11.80;;;6.72;;
12445;SDS011;6287;50.984;7.022;2023-07-02T12:00:34;14.55;;;7.05;;
12445;SDS011;6287;50.984;7.022;2023-07-02T12:03:02;12.75;;;6.50;;
12445;SDS011;6287;50.984;7.022;2023-07-02T12:05:27;11.75;;;6.53;;
12445;SDS011;6287;50.984;7.022;2023-07-02T12:07:55;11.43;;;6.90;;
12445;SDS011;6287;50.984;7.022;2023-07-02T12:10:21;14.35;;;7.40;;
12445;SDS011;6287;50.984;7.022;2023-07-02T12:12:49;14.10;;;6.40;;
12445;SDS011;6287;50.984;7.022;2023-07-02T12:15:15;14.98;;;7.85;;
12445;SDS011;6287;50.984;7.022;2023-07-02T12:17:40;12.35;;;6.68;;
12445;SDS011;6287;50.984;7.022;2023-07-02T12:20:06;13.90;;;6.72;;
12445;SDS011;6287;50.984;7.022;2023-07-02T12:22:34;12.25;;;6.25;;
12445;SDS011;6287;50.984;7.022;2023-07-02T12:25:00;13.23;;;6.18;;
12445;SDS011;6287;50.984;7.022;2023-07-02T12:27:25;10.02;;;5.90;;
12445;SDS011;6287;50.984;7.022;2023-07-02T12:29:52;11.52;;;5.93;;
12445;SDS011;6287;50.984;7.022;2023-07-02T12:32:18;8.85;;;5.70;;
12445;SDS011;6287;50.984;7.022;2023-07-02T12:34:46;13.45;;;5.95;;
12445;SDS011;6287;50.984;7.022;2023-07-02T12:37:16;10.18;;;5.10;;
12445;SDS011;6287;50.984;7.022;2023-07-02T12:39:46;7.97;;;4.50;;
12445;SDS011;6287;50.984;7.022;2023-07-02T12:42:15;9.40;;;4.93;;
12445;SDS011;6287;50.984;7.022;2023-07-02T12:44:40;11.95;;;5.00;;
12445;SDS011;6287;50.984;7.022;2023-07-02T12:47:06;6.90;;;4.45;;
12445;SDS011;6287;50.984;7.022;2023-07-02T12:49:31;10.70;;;5.22;;
12445;SDS011;6287;50.984;7.022;2023-07-02T12:51:57;8.77;;;4.45;;
12445;SDS011;6287;50.984;7.022;2023-07-02T12:54:23;8.43;;;5.05;;
12445;SDS011;6287;50.984;7.022;2023-07-02T12:56:50;8.93;;;5.00;;
12445;SDS011;6287;50.984;7.022;2023-07-02T12:59:16;8.50;;;4.40;;
12445;SDS011;6287;50.984;7.022;2023-07-02T13:01:41;9.82;;;5.35;;
12445;SDS011;6287;50.984;7.022;2023-07-02T13:04:07;10.38;;;5.43;;
12445;SDS011;6287;50.984;7.022;2023-07-02T13:06:35;9.25;;;4.97;;
12445;SDS011;6287;50.984;7.022;2023-07-02T13:09:08;8.50;;;4.68;;
12445;SDS011;6287;50.984;7.022;2023-07-02T13:11:34;11.57;;;5.80;;
12445;SDS011;6287;50.984;7.022;2023-07-02T13:14:03;8.20;;;5.07;;
12445;SDS011;6287;50.984;7.022;2023-07-02T13:16:31;11.23;;;5.68;;
12445;SDS011;6287;50.984;7.022;2023-07-02T13:18:56;9.50;;;5.07;;
12445;SDS011;6287;50.984;7.022;2023-07-02T13:21:22;8.55;;;5.03;;
12445;SDS011;6287;50.984;7.022;2023-07-02T13:23:48;9.82;;;5.38;;
12445;SDS011;6287;50.984;7.022;2023-07-02T13:26:14;10.90;;;5.40;;
12445;SDS011;6287;50.984;7.022;2023-07-02T13:28:42;11.20;;;5.82;;
12445;SDS011;6287;50.984;7.022;2023-07-02T13:31:10;11.38;;;6.13;;
12445;SDS011;6287;50.984;7.022;2023-07-02T13:33:36;13.80;;;6.18;;
12445;SDS011;6287;50.984;7.022;2023-07-02T13:36:06;11.13;;;6.32;;
12445;SDS011;6287;50.984;7.022;2023-07-02T13:38:31;14.40;;;6.60;;
12445;SDS011;6287;50.984;7.022;2023-07-02T13:40:59;10.15;;;5.95;;
12445;SDS011;6287;50.984;7.022;2023-07-02T13:43:26;9.93;;;6.03;;
12445;SDS011;6287;50.984;7.022;2023-07-02T13:45:51;13.15;;;6.78;;
12445;SDS011;6287;50.984;7.022;2023-07-02T13:48:17;11.18;;;5.60;;
12445;SDS011;6287;50.984;7.022;2023-07-02T13:50:43;11.63;;;6.65;;
12445;SDS011;6287;50.984;7.022;2023-07-02T13:53:13;9.63;;;5.80;;
12445;SDS011;6287;50.984;7.022;2023-07-02T13:55:41;11.68;;;5.85;;
12445;SDS011;6287;50.984;7.022;2023-07-02T13:58:07;10.48;;;5.78;;
12445;SDS011;6287;50.984;7.022;2023-07-02T14:00:35;11.02;;;6.50;;
12445;SDS011;6287;50.984;7.022;2023-07-02T14:03:00;12.90;;;6.70;;
12445;SDS011;6287;50.984;7.022;2023-07-02T14:05:28;11.70;;;6.43;;
12445;SDS011;6287;50.984;7.022;2023-07-02T14:07:54;9.30;;;5.93;;
12445;SDS011;6287;50.984;7.022;2023-07-02T14:10:22;10.95;;;6.40;;
12445;SDS011;6287;50.984;7.022;2023-07-02T14:12:47;13.32;;;6.47;;
12445;SDS011;6287;50.984;7.022;2023-07-02T14:15:17;9.27;;;5.30;;
12445;SDS011;6287;50.984;7.022;2023-07-02T14:17:45;9.55;;;5.72;;
12445;SDS011;6287;50.984;7.022;2023-07-02T14:20:16;10.55;;;6.20;;
12445;SDS011;6287;50.984;7.022;2023-07-02T14:22:42;10.23;;;5.90;;
12445;SDS011;6287;50.984;7.022;2023-07-02T14:25:08;9.65;;;6.35;;
12445;SDS011;6287;50.984;7.022;2023-07-02T14:27:38;12.55;;;6.78;;
12445;SDS011;6287;50.984;7.022;2023-07-02T14:30:06;11.68;;;6.10;;
12445;SDS011;6287;50.984;7.022;2023-07-02T14:32:35;11.23;;;6.18;;
12445;SDS011;6287;50.984;7.022;2023-07-02T14:35:01;9.77;;;6.40;;
12445;SDS011;6287;50.984;7.022;2023-07-02T14:37:29;10.43;;;6.10;;
12445;SDS011;6287;50.984;7.022;2023-07-02T14:39:57;9.90;;;6.00;;
12445;SDS011;6287;50.984;7.022;2023-07-02T14:42:22;8.88;;;5.97;;
12445;SDS011;6287;50.984;7.022;2023-07-02T14:44:51;9.35;;;5.72;;
12445;SDS011;6287;50.984;7.022;2023-07-02T14:47:17;11.90;;;6.10;;
12445;SDS011;6287;50.984;7.022;2023-07-02T14:49:42;10.10;;;5.82;;
12445;SDS011;6287;50.984;7.022;2023-07-02T14:52:10;12.13;;;6.03;;
12445;SDS011;6287;50.984;7.022;2023-07-02T14:54:37;11.57;;;6.00;;
12445;SDS011;6287;50.984;7.022;2023-07-02T14:57:05;10.85;;;6.05;;
12445;SDS011;6287;50.984;7.022;2023-07-02T14:59:31;9.77;;;5.68;;
12445;SDS011;6287;50.984;7.022;2023-07-02T15:01:59;9.18;;;5.82;;
12445;SDS011;6287;50.984;7.022;2023-07-02T15:04:29;9.45;;;5.60;;